Time,TemperatureF,DewpointF,PressureIn,WindDirection,WindDirectionDegrees,WindSpeedMPH,WindSpeedGustMPH,Humidity,HourlyPrecipIn,Conditions,Clouds,dailyrainin,SoftwareType,DateUTC
2013-05-20 00:13:00,52.4,30.0,29.93,NW,324,1.0,-999.0,42,-99.99,,,0.00,weatherlink.com 1.10,2013-05-20 06:13:00,
2013-05-20 00:28:00,52.7,31.0,29.93,North,355,1.0,-999.0,43,-99.99,,,0.00,weatherlink.com 1.10,2013-05-20 06:28:00,
2013-05-20 00:43:00,51.9,34.0,29.93,North,11,3.0,-999.0,50,-99.99,,,0.00,weatherlink.com 1.10,2013-05-20 06:43:00,
2013-05-20 00:58:00,51.7,35.0,29.93,North,355,5.0,-999.0,53,-99.99,,,0.00,weatherlink.com 1.10,2013-05-20 06:58:00,
2013-05-20 01:13:00,51.1,35.0,29.93,NNE,14,5.0,-999.0,55,-99.99,,,0.00,weatherlink.com 1.10,2013-05-20 07:13:00,
2013-05-20 01:28:00,50.5,35.0,29.93,North,360,4.0,-999.0,56,-99.99,,,0.00,weatherlink.com 1.10,2013-05-20 07:28:00,
2013-05-20 01:43:00,50.9,35.0,29.93,NNW,346,6.0,-999.0,55,-99.99,,,0.00,weatherlink.com 1.10,2013-05-20 07:43:00,
2013-05-20 01:58:00,51.2,36.0,29.93,NNW,328,6.0,-999.0,57,-99.99,,,0.00,weatherlink.com 1.10,2013-05-20 07:58:00,
2013-05-20 02:13:00,51.5,38.0,29.94,NE,49,1.0,-999.0,61,-99.99,,,0.00,weatherlink.com 1.10,2013-05-20 08:13:00,
2013-05-20 02:28:00,51.6,38.0,29.94,NE,49,0.0,-999.0,61,-99.99,,,0.00,weatherlink.com 1.10,2013-05-20 08:28:00,
2013-05-20 02:43:00,51.7,38.0,29.94,ESE,110,1.0,-999.0,60,-99.99,,,0.00,weatherlink.com 1.10,2013-05-20 08:43:00,
2013-05-20 02:58:00,51.2,38.0,29.95,SSW,194,2.0,-999.0,62,-99.99,,,0.00,weatherlink.com 1.10,2013-05-20 08:58:00,
2013-05-20 03:13:00,50.9,39.0,29.95,SSE,160,2.0,-999.0,64,-99.99,,,0.00,weatherlink.com 1.10,2013-05-20 09:13:00,
2013-05-20 03:28:00,50.5,39.0,29.95,SSE,159,5.0,-999.0,66,-99.99,,,0.00,weatherlink.com 1.10,2013-05-20 09:28:00,
2013-05-20 03:43:00,50.3,40.0,29.95,South,180,4.0,-999.0,67,-99.99,,,0.00,weatherlink.com 1.10,2013-05-20 09:43:00,
2013-05-20 03:58:00,50.1,39.0,29.96,South,188,5.0,-999.0,67,-99.99,,,0.00,weatherlink.com 1.10,2013-05-20 09:58:00,
2013-05-20 04:13:00,49.9,41.0,29.96,South,187,9.0,-999.0,72,-99.99,,,0.00,weatherlink.com 1.10,2013-05-20 10:13:00,
2013-05-20 04:28:00,48.8,42.0,29.96,SSW,197,5.0,-999.0,77,-99.99,,,0.00,weatherlink.com 1.10,2013-05-20 10:28:00,
2013-05-20 04:43:00,48.5,41.0,29.96,SSW,200,3.0,-999.0,76,-99.99,,,0.00,weatherlink.com 1.10,2013-05-20 10:43:00,
2013-05-20 04:58:00,48.6,42.0,29.96,SSW,192,4.0,-999.0,78,-99.99,,,0.00,weatherlink.com 1.10,2013-05-20 10:58:00,
2013-05-20 05:13:00,48.4,42.0,29.97,SSW,200,3.0,-999.0,77,-99.99,,,0.00,weatherlink.com 1.10,2013-05-20 11:13:00,
2013-05-20 05:28:00,49.0,41.0,29.98,South,179,2.0,-999.0,75,-99.99,,,0.00,weatherlink.com 1.10,2013-05-20 11:28:00,
2013-05-20 05:43:00,48.4,43.0,29.98,East,92,2.0,-999.0,80,-99.99,,,0.00,weatherlink.com 1.10,2013-05-20 11:43:00,
2013-05-20 05:58:00,47.7,43.0,29.99,NNE,31,1.0,-999.0,82,-99.99,,,0.00,weatherlink.com 1.10,2013-05-20 11:58:00,
2013-05-20 06:13:00,47.7,43.0,29.99,NNE,30,2.0,-999.0,84,-99.99,,,0.00,weatherlink.com 1.10,2013-05-20 12:13:00,
2013-05-20 06:28:00,47.5,43.0,29.99,SW,223,5.0,-999.0,85,-99.99,,,0.01,weatherlink.com 1.10,2013-05-20 12:28:00,
2013-05-20 06:43:00,47.6,43.0,30.00,SSW,209,4.0,-999.0,85,-99.99,,,0.01,weatherlink.com 1.10,2013-05-20 12:43:00,
2013-05-20 06:58:00,47.8,45.0,30.00,South,170,6.0,-999.0,88,-99.99,,,0.01,weatherlink.com 1.10,2013-05-20 12:58:00,
2013-05-20 07:13:00,48.5,46.0,30.00,SSE,152,5.0,-999.0,90,-99.99,,,0.02,weatherlink.com 1.10,2013-05-20 13:13:00,
2013-05-20 07:28:00,49.3,46.0,30.00,SSE,161,5.0,-999.0,89,-99.99,,,0.02,weatherlink.com 1.10,2013-05-20 13:28:00,
2013-05-20 07:43:00,50.0,45.0,29.99,SSE,156,10.0,-999.0,84,-99.99,,,0.02,weatherlink.com 1.10,2013-05-20 13:43:00,
2013-05-20 07:58:00,49.7,46.0,29.98,South,170,12.0,-999.0,86,-99.99,,,0.02,weatherlink.com 1.10,2013-05-20 13:58:00,
2013-05-20 08:13:00,51.8,48.0,29.97,SSE,163,9.0,-999.0,86,-99.99,,,0.02,weatherlink.com 1.10,2013-05-20 14:13:00,
2013-05-20 08:28:00,53.2,45.0,29.98,SSE,153,13.0,-999.0,75,-99.99,,,0.02,weatherlink.com 1.10,2013-05-20 14:28:00,
2013-05-20 08:43:00,54.5,46.0,29.98,SE,145,12.0,-999.0,72,-99.99,,,0.02,weatherlink.com 1.10,2013-05-20 14:43:00,
2013-05-20 08:58:00,55.5,46.0,29.97,SE,136,9.0,-999.0,70,-99.99,,,0.02,weatherlink.com 1.10,2013-05-20 14:58:00,
2013-05-20 09:13:00,56.6,46.0,29.96,SSE,152,14.0,-999.0,67,-99.99,,,0.02,weatherlink.com 1.10,2013-05-20 15:13:00,
2013-05-20 09:28:00,57.9,46.0,29.96,ESE,119,10.0,-999.0,65,-99.99,,,0.02,weatherlink.com 1.10,2013-05-20 15:28:00,
2013-05-20 09:43:00,58.7,44.0,29.96,ESE,119,10.0,-999.0,59,-99.99,,,0.02,weatherlink.com 1.10,2013-05-20 15:43:00,
2013-05-20 09:58:00,59.8,46.0,29.95,SSE,155,9.0,-999.0,60,-99.99,,,0.02,weatherlink.com 1.10,2013-05-20 15:58:00,
2013-05-20 10:13:00,61.6,46.0,29.96,SE,140,3.0,-999.0,57,-99.99,,,0.02,weatherlink.com 1.10,2013-05-20 16:13:00,
2013-05-20 10:28:00,62.2,43.0,29.96,NE,56,11.0,-999.0,49,-99.99,,,0.02,weatherlink.com 1.10,2013-05-20 16:28:00,
2013-05-20 10:43:00,61.0,40.0,29.96,NE,49,3.0,-999.0,47,-99.99,,,0.02,weatherlink.com 1.10,2013-05-20 16:43:00,
2013-05-20 10:58:00,60.8,42.0,29.96,NE,36,7.0,-999.0,50,-99.99,,,0.02,weatherlink.com 1.10,2013-05-20 16:58:00,
2013-05-20 11:13:00,59.5,40.0,29.96,NNE,26,8.0,-999.0,48,-99.99,,,0.02,weatherlink.com 1.10,2013-05-20 17:13:00,
2013-05-20 11:28:00,60.2,42.0,29.97,ENE,72,4.0,-999.0,51,-99.99,,,0.02,weatherlink.com 1.10,2013-05-20 17:28:00,
2013-05-20 11:43:00,60.1,41.0,29.97,ENE,76,13.0,-999.0,49,-99.99,,,0.02,weatherlink.com 1.10,2013-05-20 17:43:00,
2013-05-20 11:58:00,59.3,42.0,29.97,NNE,26,12.0,-999.0,53,-99.99,,,0.02,weatherlink.com 1.10,2013-05-20 17:58:00,
2013-05-20 12:13:00,58.5,41.0,29.97,NNE,18,11.0,-999.0,53,-99.99,,,0.02,weatherlink.com 1.10,2013-05-20 18:13:00,
2013-05-20 12:43:00,60.2,42.0,29.97,ENE,74,2.0,-999.0,52,-99.99,,,0.02,weatherlink.com 1.10,2013-05-20 18:43:00,
2013-05-20 12:58:00,62.3,43.0,29.96,SE,140,3.0,-999.0,49,-99.99,,,0.02,weatherlink.com 1.10,2013-05-20 18:58:00,
2013-05-20 13:13:00,63.3,42.0,29.96,SSW,206,1.0,-999.0,46,-99.99,,,0.02,weatherlink.com 1.10,2013-05-20 19:13:00,
2013-05-20 13:28:00,65.2,44.0,29.96,SSE,162,8.0,-999.0,47,-99.99,,,0.02,weatherlink.com 1.10,2013-05-20 19:28:00,
2013-05-20 13:43:00,64.1,43.0,29.96,SE,145,2.0,-999.0,46,-99.99,,,0.02,weatherlink.com 1.10,2013-05-20 19:43:00,
2013-05-20 13:58:00,64.9,45.0,29.96,SSE,168,6.0,-999.0,49,-99.99,,,0.02,weatherlink.com 1.10,2013-05-20 19:58:00,
2013-05-20 14:13:00,65.4,42.0,29.96,SSW,196,13.0,-999.0,43,-99.99,,,0.02,weatherlink.com 1.10,2013-05-20 20:13:00,
2013-05-20 14:28:00,64.4,41.0,29.97,ENE,73,1.0,-999.0,42,-99.99,,,0.02,weatherlink.com 1.10,2013-05-20 20:28:00,
2013-05-20 14:43:00,64.6,42.0,29.96,East,90,7.0,-999.0,44,-99.99,,,0.02,weatherlink.com 1.10,2013-05-20 20:43:00,
2013-05-20 14:58:00,62.9,42.0,29.97,NE,50,6.0,-999.0,47,-99.99,,,0.02,weatherlink.com 1.10,2013-05-20 20:58:00,
2013-05-20 15:13:00,61.5,41.0,29.97,SE,131,3.0,-999.0,47,-99.99,,,0.02,weatherlink.com 1.10,2013-05-20 21:13:00,
2013-05-20 15:28:00,63.7,41.0,29.97,ESE,123,4.0,-999.0,44,-99.99,,,0.02,weatherlink.com 1.10,2013-05-20 21:28:00,
2013-05-20 15:43:00,65.3,44.0,29.97,SE,138,15.0,-999.0,46,-99.99,,,0.02,weatherlink.com 1.10,2013-05-20 21:43:00,
2013-05-20 15:58:00,63.1,41.0,29.97,SE,146,9.0,-999.0,45,-99.99,,,0.02,weatherlink.com 1.10,2013-05-20 21:58:00,
2013-05-20 16:13:00,61.9,42.0,29.97,SE,145,7.0,-999.0,49,-99.99,,,0.02,weatherlink.com 1.10,2013-05-20 22:13:00,
2013-05-20 16:28:00,61.6,44.0,29.98,SSE,154,10.0,-999.0,52,-99.99,,,0.02,weatherlink.com 1.10,2013-05-20 22:28:00,
2013-05-20 16:43:00,61.6,43.0,29.98,SSE,159,7.0,-999.0,50,-99.99,,,0.02,weatherlink.com 1.10,2013-05-20 22:43:00,
2013-05-20 16:58:00,61.7,42.0,29.98,South,185,11.0,-999.0,49,-99.99,,,0.02,weatherlink.com 1.10,2013-05-20 22:58:00,
2013-05-20 17:13:00,60.6,42.0,29.98,SSW,195,14.0,-999.0,50,-99.99,,,0.02,weatherlink.com 1.10,2013-05-20 23:13:00,
2013-05-20 17:28:00,60.0,42.0,29.98,South,174,10.0,-999.0,52,-99.99,,,0.02,weatherlink.com 1.10,2013-05-20 23:28:00,
2013-05-20 17:43:00,60.2,42.0,29.99,SE,144,14.0,-999.0,51,-99.99,,,0.02,weatherlink.com 1.10,2013-05-20 23:43:00,
2013-05-20 17:58:00,59.4,42.0,29.99,SSE,153,10.0,-999.0,53,-99.99,,,0.02,weatherlink.com 1.10,2013-05-20 23:58:00,
2013-05-20 18:13:00,59.0,42.0,30.00,SE,133,6.0,-999.0,53,-99.99,,,0.02,weatherlink.com 1.10,2013-05-21 00:13:00,
2013-05-20 18:28:00,58.6,42.0,30.00,SSE,161,9.0,-999.0,55,-99.99,,,0.02,weatherlink.com 1.10,2013-05-21 00:28:00,
2013-05-20 18:43:00,58.6,42.0,30.00,South,169,7.0,-999.0,54,-99.99,,,0.02,weatherlink.com 1.10,2013-05-21 00:43:00,
2013-05-20 18:58:00,58.3,41.0,30.01,South,177,7.0,-999.0,54,-99.99,,,0.02,weatherlink.com 1.10,2013-05-21 00:58:00,
2013-05-20 19:13:00,57.9,42.0,30.02,SSW,202,8.0,-999.0,55,-99.99,,,0.02,weatherlink.com 1.10,2013-05-21 01:13:00,
2013-05-20 19:28:00,57.5,42.0,30.03,South,180,6.0,-999.0,56,-99.99,,,0.02,weatherlink.com 1.10,2013-05-21 01:28:00,
2013-05-20 19:43:00,56.9,42.0,30.03,South,189,6.0,-999.0,57,-99.99,,,0.02,weatherlink.com 1.10,2013-05-21 01:43:00,
2013-05-20 19:58:00,56.1,41.0,30.03,SW,223,5.0,-999.0,57,-99.99,,,0.02,weatherlink.com 1.10,2013-05-21 01:58:00,
2013-05-20 20:13:00,55.4,41.0,30.04,WNW,288,5.0,-999.0,59,-99.99,,,0.02,weatherlink.com 1.10,2013-05-21 02:13:00,
2013-05-20 20:28:00,55.1,41.0,30.04,West,260,1.0,-999.0,59,-99.99,,,0.02,weatherlink.com 1.10,2013-05-21 02:28:00,
2013-05-20 20:43:00,54.3,40.0,30.04,North,355,1.0,-999.0,59,-99.99,,,0.02,weatherlink.com 1.10,2013-05-21 02:43:00,
2013-05-20 20:58:00,53.3,40.0,30.05,WSW,254,4.0,-999.0,62,-99.99,,,0.02,weatherlink.com 1.10,2013-05-21 02:58:00,
2013-05-20 21:13:00,52.7,41.0,30.06,SW,215,1.0,-999.0,64,-99.99,,,0.02,weatherlink.com 1.10,2013-05-21 03:13:00,
2013-05-20 21:28:00,51.9,37.0,30.07,ENE,78,3.0,-999.0,58,-99.99,,,0.02,weatherlink.com 1.10,2013-05-21 03:28:00,
2013-05-20 21:43:00,50.5,37.0,30.07,East,91,2.0,-999.0,61,-99.99,,,0.02,weatherlink.com 1.10,2013-05-21 03:43:00,
2013-05-20 21:58:00,49.5,38.0,30.07,SW,226,5.0,-999.0,64,-99.99,,,0.02,weatherlink.com 1.10,2013-05-21 03:58:00,
2013-05-20 22:13:00,49.1,38.0,30.08,SW,217,5.0,-999.0,66,-99.99,,,0.02,weatherlink.com 1.10,2013-05-21 04:13:00,
2013-05-20 22:28:00,48.9,38.0,30.07,WSW,243,5.0,-999.0,66,-99.99,,,0.02,weatherlink.com 1.10,2013-05-21 04:28:00,
2013-05-20 22:43:00,49.1,38.0,30.08,WSW,246,4.0,-999.0,66,-99.99,,,0.02,weatherlink.com 1.10,2013-05-21 04:43:00,
2013-05-20 22:58:00,48.5,38.0,30.07,West,268,5.0,-999.0,68,-99.99,,,0.02,weatherlink.com 1.10,2013-05-21 04:58:00,
2013-05-20 23:13:00,48.4,39.0,30.07,WSW,242,4.0,-999.0,70,-99.99,,,0.02,weatherlink.com 1.10,2013-05-21 05:13:00,
2013-05-20 23:28:00,48.2,39.0,30.07,WSW,246,4.0,-999.0,70,-99.99,,,0.02,weatherlink.com 1.10,2013-05-21 05:28:00,
2013-05-20 23:43:00,47.4,38.0,30.07,West,271,2.0,-999.0,71,-99.99,,,0.02,weatherlink.com 1.10,2013-05-21 05:43:00,
2013-05-20 23:58:00,47.1,38.0,30.07,West,264,1.0,-999.0,72,-99.99,,,0.02,weatherlink.com 1.10,2013-05-21 05:58:00,